Time;durP1;ratioP1;P1;durP2;ratioP2;P2;SDS_P1;SDS_P2;PMS_P1;PMS_P2;Temp;Humidity;BMP_temperature;BMP_pressure;BME280_temperature;BME280_humidity;BME280_pressure;Samples;Min_cycle;Max_cycle;Signal;HPM_P1;HPM_P2
2021/03/14 00:00:36;;;;;;;2.40;0.90;;;7.90;88.80;;;;;;4427604;32;20153;-68
2021/03/14 00:03:07;;;;;;;2.63;1.10;;;7.90;89.30;;;;;;4427999;32;20177;-69
2021/03/14 00:05:36;;;;;;;5.70;1.40;;;7.90;89.20;;;;;;4426579;32;20166;-70
2021/03/14 00:08:04;;;;;;;1.90;0.80;;;7.90;89.90;;;;;;4427258;32;20164;-70
2021/03/14 00:10:31;;;;;;;0.97;0.77;;;7.80;90.10;;;;;;4427019;32;20202;-68
2021/03/14 00:12:58;;;;;;;1.50;1.00;;;7.80;90.30;;;;;;4426448;32;20138;-68
2021/03/14 00:15:25;;;;;;;2.17;1.20;;;7.70;90.60;;;;;;4427898;32;20197;-71
2021/03/14 00:18:05;;;;;;;1.50;0.97;;;7.60;90.90;;;;;;4428143;32;20225;-71
2021/03/14 00:20:32;;;;;;;1.93;0.90;;;7.50;91.30;;;;;;4426559;32;20149;-71
2021/03/14 00:22:59;;;;;;;1.60;1.00;;;7.50;91.60;;;;;;4426087;32;20136;-71
2021/03/14 00:25:25;;;;;;;2.53;1.30;;;7.40;91.90;;;;;;4427766;32;20214;-70
2021/03/14 00:27:52;;;;;;;2.00;1.20;;;7.40;92.70;;;;;;4427679;32;20405;-70
2021/03/14 00:30:19;;;;;;;1.80;1.00;;;7.30;92.60;;;;;;4426088;32;20151;-70
2021/03/14 00:32:45;;;;;;;2.00;1.13;;;7.20;92.90;;;;;;4425701;32;20136;-70
2021/03/14 00:35:15;;;;;;;2.63;1.20;;;7.20;93.20;;;;;;4427707;32;20139;-70
2021/03/14 00:37:42;;;;;;;3.30;1.30;;;7.20;93.50;;;;;;4426119;32;20480;-71
2021/03/14 00:40:19;;;;;;;2.87;1.20;;;7.10;93.70;;;;;;4427624;32;20205;-73
2021/03/14 00:42:46;;;;;;;2.33;1.20;;;7.10;93.90;;;;;;4426150;32;20139;-73
2021/03/14 00:45:27;;;;;;;1.97;1.10;;;7.00;94.10;;;;;;4427543;32;20141;-73
2021/03/14 00:47:54;;;;;;;3.07;1.10;;;6.90;94.40;;;;;;4425424;32;20204;-73
2021/03/14 00:50:21;;;;;;;2.77;1.10;;;6.90;94.60;;;;;;4427300;32;20178;-74
2021/03/14 00:52:47;;;;;;;1.70;1.00;;;6.90;94.90;;;;;;4427335;32;20202;-73
2021/03/14 00:55:14;;;;;;;1.90;1.20;;;6.90;95.20;;;;;;4425667;32;20192;-74
2021/03/14 00:57:41;;;;;;;2.33;1.40;;;6.80;95.30;;;;;;4427328;32;20148;-74
2021/03/14 01:00:08;;;;;;;2.27;1.20;;;6.80;95.50;;;;;;4425576;32;20143;-74
2021/03/14 01:02:34;;;;;;;2.10;1.10;;;6.80;95.70;;;;;;4426857;32;20232;-74
2021/03/14 01:05:01;;;;;;;1.70;1.17;;;6.70;95.90;;;;;;4425728;32;20131;-74
2021/03/14 01:07:27;;;;;;;3.37;1.30;;;6.70;96.30;;;;;;4425968;32;20206;-74
2021/03/14 01:09:54;;;;;;;2.97;1.20;;;6.60;96.60;;;;;;4425530;32;20182;-72
2021/03/14 01:12:20;;;;;;;2.47;1.40;;;6.60;96.80;;;;;;4425645;32;20209;-74
2021/03/14 01:14:47;;;;;;;3.17;1.30;;;6.60;97.10;;;;;;4425506;32;20143;-73
2021/03/14 01:17:13;;;;;;;4.00;1.60;;;6.50;97.40;;;;;;4426056;32;20161;-73
2021/03/14 01:19:40;;;;;;;3.60;1.50;;;6.50;97.90;;;;;;4425487;32;20141;-74
2021/03/14 01:22:07;;;;;;;2.47;1.40;;;6.40;98.30;;;;;;4425540;32;20196;-72
2021/03/14 01:24:33;;;;;;;2.87;1.23;;;6.40;98.70;;;;;;4425280;32;20430;-73
2021/03/14 01:26:59;;;;;;;2.23;1.23;;;6.40;99.00;;;;;;4424140;32;20154;-72
2021/03/14 01:29:26;;;;;;;3.07;1.30;;;6.40;99.60;;;;;;4423791;32;20166;-73
2021/03/14 01:31:52;;;;;;;2.77;1.50;;;6.30;99.90;;;;;;4422519;32;20164;-72
2021/03/14 01:34:19;;;;;;;2.73;1.33;;;6.30;99.90;;;;;;4419394;32;20224;-73
2021/03/14 01:36:45;;;;;;;2.67;1.43;;;6.30;99.90;;;;;;4424917;32;20169;-73
2021/03/14 01:39:12;;;;;;;4.50;1.50;;;6.20;99.90;;;;;;4423442;32;20186;-73
2021/03/14 01:41:38;;;;;;;2.50;1.23;;;6.10;99.90;;;;;;4425022;32;20355;-73
2021/03/14 01:44:05;;;;;;;2.90;1.50;;;6.10;99.90;;;;;;4425120;32;20577;-74
2021/03/14 01:46:33;;;;;;;1.87;1.30;;;6.10;99.90;;;;;;4425091;32;20144;-73
2021/03/14 01:49:15;;;;;;;2.23;1.37;;;6.00;99.90;;;;;;4426779;32;20169;-74
2021/03/14 01:51:42;;;;;;;3.13;1.60;;;6.00;99.90;;;;;;4426551;32;20206;-74
2021/03/14 01:54:09;;;;;;;3.33;1.70;;;6.00;99.90;;;;;;4425069;32;20184;-74
2021/03/14 01:56:36;;;;;;;5.00;1.70;;;6.00;99.90;;;;;;4425014;32;20136;-74
2021/03/14 01:59:03;;;;;;;3.50;1.73;;;6.00;99.90;;;;;;4424690;32;20200;-75
2021/03/14 02:01:32;;;;;;;2.67;1.77;;;5.90;99.90;;;;;;4426113;32;20494;-74
2021/03/14 02:03:58;;;;;;;4.53;1.63;;;5.90;99.90;;;;;;4424948;32;20410;-74
2021/03/14 02:06:25;;;;;;;3.33;1.63;;;5.90;99.90;;;;;;4425138;32;20238;-74
2021/03/14 02:08:52;;;;;;;2.73;1.67;;;5.90;99.90;;;;;;4424759;32;20169;-74
2021/03/14 02:11:22;;;;;;;2.67;1.50;;;5.80;99.90;;;;;;4423821;32;20185;-74
2021/03/14 02:13:51;;;;;;;2.93;1.50;;;5.80;99.90;;;;;;4424926;32;20175;-74
2021/03/14 02:16:22;;;;;;;5.77;2.07;;;5.80;99.90;;;;;;4424440;32;20170;-73
2021/03/14 02:18:57;;;;;;;3.23;1.83;;;5.80;99.90;;;;;;4425609;32;20151;-73
2021/03/14 02:21:24;;;;;;;4.23;1.97;;;5.70;99.90;;;;;;4424502;32;20139;-74
2021/03/14 02:23:59;;;;;;;3.30;1.70;;;5.70;99.90;;;;;;4424348;32;20154;-75
2021/03/14 02:26:39;;;;;;;2.57;1.70;;;5.60;99.90;;;;;;4426020;32;20182;-74
2021/03/14 02:29:10;;;;;;;4.07;1.90;;;5.60;99.90;;;;;;4425069;32;20196;-73
2021/03/14 02:31:37;;;;;;;3.30;1.70;;;5.50;99.90;;;;;;4426032;32;20219;-75
2021/03/14 02:34:19;;;;;;;3.83;1.90;;;5.50;99.90;;;;;;4426281;32;20137;-73
2021/03/14 02:36:46;;;;;;;3.70;1.80;;;5.50;99.90;;;;;;4424869;32;20219;-73
2021/03/14 02:39:16;;;;;;;3.50;1.70;;;5.50;99.90;;;;;;4426012;32;20198;-73
2021/03/14 02:41:44;;;;;;;3.83;1.70;;;5.50;99.90;;;;;;4425471;32;20199;-73
2021/03/14 02:44:14;;;;;;;3.57;1.70;;;5.40;99.90;;;;;;4425945;32;20140;-73
2021/03/14 02:46:43;;;;;;;3.73;1.80;;;5.40;99.90;;;;;;4425815;32;20183;-74
2021/03/14 02:49:11;;;;;;;4.67;1.80;;;5.30;99.90;;;;;;4424409;32;20200;-71
2021/03/14 02:51:39;;;;;;;3.23;1.80;;;5.40;99.90;;;;;;4425664;32;20196;-73
2021/03/14 02:54:07;;;;;;;3.27;1.50;;;5.30;99.90;;;;;;4424458;32;20182;-73
2021/03/14 02:56:36;;;;;;;5.27;1.70;;;5.30;99.90;;;;;;4424316;32;20171;-73
2021/03/14 02:59:04;;;;;;;3.40;1.60;;;5.30;99.90;;;;;;4424899;32;20162;-73
2021/03/14 03:01:31;;;;;;;3.13;1.70;;;5.30;99.90;;;;;;4423943;32;20199;-73
2021/03/14 03:04:00;;;;;;;3.70;1.90;;;5.20;99.90;;;;;;4422424;32;20599;-73
2021/03/14 03:06:28;;;;;;;2.87;1.63;;;5.20;99.90;;;;;;4424663;32;20181;-73
2021/03/14 03:08:55;;;;;;;3.17;2.00;;;5.20;99.90;;;;;;4423931;32;20226;-73
2021/03/14 03:11:23;;;;;;;3.97;2.00;;;5.20;99.90;;;;;;4426635;32;20177;-73
2021/03/14 03:13:52;;;;;;;3.63;2.20;;;5.10;99.90;;;;;;4425838;32;20416;-72
2021/03/14 03:16:23;;;;;;;4.00;1.90;;;5.10;99.90;;;;;;4427324;32;20151;-73
2021/03/14 03:18:51;;;;;;;3.90;1.90;;;5.10;99.90;;;;;;4428306;32;20191;-72
2021/03/14 03:21:22;;;;;;;2.43;1.57;;;5.00;99.90;;;;;;4428701;32;20405;-76
2021/03/14 03:23:49;;;;;;;3.00;1.90;;;5.00;99.90;;;;;;4428567;32;20222;-73
2021/03/14 03:26:16;;;;;;;4.20;1.90;;;5.00;99.90;;;;;;4428935;32;20163;-73
2021/03/14 03:28:43;;;;;;;4.53;1.80;;;5.00;99.90;;;;;;4427054;32;20163;-72
2021/03/14 03:31:11;;;;;;;3.07;2.10;;;5.00;99.90;;;;;;4428618;32;20143;-72
2021/03/14 03:33:37;;;;;;;2.63;1.77;;;5.00;99.90;;;;;;4428606;32;20170;-74
2021/03/14 03:36:04;;;;;;;2.90;1.83;;;4.90;99.90;;;;;;4427102;32;20402;-73
2021/03/14 03:38:32;;;;;;;3.90;1.87;;;4.90;99.90;;;;;;4428482;32;20396;-73
2021/03/14 03:41:00;;;;;;;2.70;1.80;;;4.90;99.90;;;;;;4427033;32;20142;-72
2021/03/14 03:43:28;;;;;;;4.43;1.80;;;4.90;99.90;;;;;;4428444;32;20189;-72
2021/03/14 03:45:56;;;;;;;3.40;1.90;;;4.90;99.90;;;;;;4412875;32;20186;-72
2021/03/14 03:48:31;;;;;;;3.97;2.00;;;4.90;99.90;;;;;;4428752;32;20193;-73
2021/03/14 03:50:59;;;;;;;3.67;1.80;;;4.80;99.90;;;;;;4426909;32;20202;-73
2021/03/14 03:53:27;;;;;;;4.23;1.87;;;4.80;99.90;;;;;;4427062;32;20151;-72
2021/03/14 03:55:55;;;;;;;3.50;2.00;;;4.80;99.90;;;;;;4426701;32;20151;-72
2021/03/14 03:58:24;;;;;;;4.73;2.00;;;4.80;99.90;;;;;;4428126;32;20136;-72
2021/03/14 04:00:52;;;;;;;4.03;1.90;;;4.70;99.90;;;;;;4428171;32;20139;-73
2021/03/14 04:03:21;;;;;;;5.00;2.03;;;4.70;99.90;;;;;;4428074;32;20195;-73
2021/03/14 04:05:50;;;;;;;6.77;2.30;;;4.70;99.90;;;;;;4426083;32;20158;-73
2021/03/14 04:08:17;;;;;;;3.47;1.80;;;4.70;99.90;;;;;;4426598;32;20193;-73
2021/03/14 04:10:44;;;;;;;4.40;2.20;;;4.70;99.90;;;;;;4426332;32;20193;-74
2021/03/14 04:13:11;;;;;;;4.40;2.20;;;4.70;99.90;;;;;;4427958;32;20163;-73
2021/03/14 04:15:39;;;;;;;3.70;1.97;;;4.70;99.90;;;;;;4427900;32;20150;-72
2021/03/14 04:18:07;;;;;;;6.50;2.20;;;4.70;99.90;;;;;;4425895;32;20197;-73
2021/03/14 04:20:37;;;;;;;3.07;1.90;;;4.70;99.90;;;;;;4426314;32;20184;-73
2021/03/14 04:23:21;;;;;;;4.03;1.93;;;4.70;99.90;;;;;;4427352;32;20144;-73
2021/03/14 04:25:51;;;;;;;5.77;2.03;;;4.60;99.90;;;;;;4427733;32;20148;-74
2021/03/14 04:28:19;;;;;;;4.47;1.93;;;4.70;99.90;;;;;;4426375;32;20461;-73
2021/03/14 04:30:46;;;;;;;5.00;2.13;;;4.70;99.90;;;;;;4426070;32;20516;-73
2021/03/14 04:33:13;;;;;;;4.07;1.87;;;4.70;99.90;;;;;;4426162;32;20151;-73
2021/03/14 04:35:40;;;;;;;3.43;1.90;;;4.70;99.90;;;;;;4427647;32;20433;-73
2021/03/14 04:38:07;;;;;;;3.77;2.23;;;4.70;99.90;;;;;;4426007;32;20189;-73
2021/03/14 04:40:36;;;;;;;5.60;2.10;;;4.70;99.90;;;;;;4427558;32;20204;-73
2021/03/14 04:43:04;;;;;;;3.40;2.07;;;4.60;99.90;;;;;;4426012;32;20181;-73
2021/03/14 04:45:32;;;;;;;4.07;2.20;;;4.60;99.90;;;;;;4425441;32;20487;-73
2021/03/14 04:47:58;;;;;;;4.17;2.40;;;4.70;99.90;;;;;;4426052;32;20211;-73
2021/03/14 04:50:28;;;;;;;4.00;2.20;;;4.60;99.90;;;;;;4425925;32;20163;-74
2021/03/14 04:52:58;;;;;;;4.13;1.90;;;4.70;99.90;;;;;;4425900;32;20159;-73
2021/03/14 04:55:27;;;;;;;3.83;1.93;;;4.70;99.90;;;;;;4425971;32;20167;-73
2021/03/14 04:57:58;;;;;;;2.60;1.90;;;4.70;99.90;;;;;;4425940;32;20141;-74
2021/03/14 05:00:25;;;;;;;3.60;1.83;;;4.70;99.90;;;;;;4427594;32;20219;-74
2021/03/14 05:02:56;;;;;;;3.07;1.87;;;4.70;99.90;;;;;;4427528;32;20140;-73
2021/03/14 05:05:24;;;;;;;6.10;2.00;;;4.70;99.90;;;;;;4427448;32;20167;-73
2021/03/14 05:07:52;;;;;;;3.93;2.10;;;4.70;99.90;;;;;;4425866;32;20139;-74
2021/03/14 05:10:23;;;;;;;3.87;2.00;;;4.70;99.90;;;;;;4425628;32;20159;-74
2021/03/14 05:12:51;;;;;;;2.90;2.00;;;4.60;99.90;;;;;;4426652;32;20138;-73
2021/03/14 05:15:18;;;;;;;4.20;2.07;;;4.60;99.90;;;;;;4425582;32;20250;-74
2021/03/14 05:17:47;;;;;;;5.17;2.27;;;4.60;99.90;;;;;;4425042;32;20474;-73
2021/03/14 05:20:20;;;;;;;4.53;2.40;;;4.60;99.90;;;;;;4425443;32;20185;-74
2021/03/14 05:22:48;;;;;;;3.77;2.00;;;4.60;99.90;;;;;;4426604;32;20156;-74
2021/03/14 05:25:16;;;;;;;4.73;2.17;;;4.60;99.90;;;;;;4425086;32;20160;-73
2021/03/14 05:27:49;;;;;;;4.23;2.10;;;4.60;99.90;;;;;;4425330;32;20158;-74
2021/03/14 05:30:23;;;;;;;5.30;2.80;;;4.60;99.90;;;;;;4426753;32;20246;-74
2021/03/14 05:32:56;;;;;;;5.70;2.43;;;4.60;99.90;;;;;;4426419;32;20469;-74
2021/03/14 05:35:27;;;;;;;4.77;2.20;;;4.70;99.90;;;;;;4426816;32;20162;-74
2021/03/14 05:37:55;;;;;;;4.60;2.37;;;4.60;99.90;;;;;;4425300;32;20155;-74
2021/03/14 05:40:23;;;;;;;3.70;2.20;;;4.50;99.90;;;;;;4426712;32;20147;-74
2021/03/14 05:42:51;;;;;;;5.07;2.27;;;4.50;99.90;;;;;;4425214;32;20132;-74
2021/03/14 05:45:18;;;;;;;4.33;2.40;;;4.50;99.90;;;;;;4424703;32;20131;-74
2021/03/14 05:47:46;;;;;;;3.00;2.23;;;4.60;99.90;;;;;;4426011;32;20205;-73
2021/03/14 05:50:18;;;;;;;5.10;2.60;;;4.60;99.90;;;;;;4426493;32;20165;-74
2021/03/14 05:52:44;;;;;;;6.57;2.50;;;4.50;99.90;;;;;;4426535;32;20528;-74
2021/03/14 05:55:21;;;;;;;7.50;2.97;;;4.50;99.90;;;;;;4425061;32;20547;-73
2021/03/14 05:57:55;;;;;;;7.53;2.80;;;4.50;99.90;;;;;;4425027;32;20139;-74
2021/03/14 06:00:28;;;;;;;9.27;3.23;;;4.50;99.90;;;;;;4426510;32;20166;-74
2021/03/14 06:02:59;;;;;;;8.73;3.23;;;4.40;99.90;;;;;;4426473;32;20175;-74
2021/03/14 06:05:28;;;;;;;6.93;3.03;;;4.50;99.90;;;;;;4424968;32;20130;-73
2021/03/14 06:07:55;;;;;;;8.17;2.90;;;4.50;99.90;;;;;;4426578;32;20208;-74
2021/03/14 06:10:23;;;;;;;9.67;2.90;;;4.50;99.90;;;;;;4425146;32;20453;-74
2021/03/14 06:12:50;;;;;;;4.93;2.80;;;4.50;99.90;;;;;;4424255;32;20565;-74
2021/03/14 06:15:16;;;;;;;6.40;2.80;;;4.50;99.90;;;;;;4424864;32;20163;-73
2021/03/14 06:17:43;;;;;;;4.87;2.80;;;4.60;99.90;;;;;;4424661;32;20151;-73
2021/03/14 06:20:34;;;;;;;4.23;2.60;;;4.60;99.90;;;;;;4424688;32;20494;-73
2021/03/14 06:23:09;;;;;;;6.43;2.90;;;4.60;99.90;;;;;;4424731;32;20143;-73
2021/03/14 06:25:37;;;;;;;5.63;2.50;;;4.60;99.90;;;;;;4425269;32;20212;-74
2021/03/14 06:28:04;;;;;;;4.13;2.53;;;4.70;99.90;;;;;;4426107;32;20139;-73
2021/03/14 06:30:34;;;;;;;7.87;2.80;;;4.70;99.90;;;;;;4424533;32;20205;-74
2021/03/14 06:33:12;;;;;;;3.73;2.30;;;4.80;99.90;;;;;;4425969;32;20167;-74
2021/03/14 06:35:45;;;;;;;3.53;2.37;;;4.90;99.90;;;;;;4424612;32;20142;-74
2021/03/14 06:38:33;;;;;;;4.23;2.10;;;4.90;99.90;;;;;;4424475;32;20164;-72
2021/03/14 06:41:02;;;;;;;6.70;2.53;;;5.00;99.90;;;;;;4424684;32;20131;-73
2021/03/14 06:43:34;;;;;;;5.17;2.40;;;5.00;99.90;;;;;;4423976;32;20170;-73
2021/03/14 06:46:16;;;;;;;4.27;2.50;;;5.10;99.90;;;;;;4425738;32;20173;-74
2021/03/14 06:48:43;;;;;;;3.93;2.20;;;5.20;99.90;;;;;;4425085;32;20169;-74
2021/03/14 06:51:09;;;;;;;6.50;2.60;;;5.30;99.90;;;;;;4422228;32;20515;-73
2021/03/14 06:53:35;;;;;;;5.87;2.27;;;5.40;99.90;;;;;;4425119;32;20205;-73
2021/03/14 06:56:05;;;;;;;6.20;2.30;;;5.50;99.90;;;;;;4424096;32;20166;-73
2021/03/14 06:58:36;;;;;;;4.73;2.53;;;5.60;99.90;;;;;;4424059;32;20141;-73
2021/03/14 07:01:15;;;;;;;5.13;2.83;;;5.60;99.90;;;;;;4425433;32;20455;-74
2021/03/14 07:03:45;;;;;;;6.60;2.70;;;5.60;99.90;;;;;;4423456;32;20173;-73
2021/03/14 07:06:21;;;;;;;7.50;2.40;;;5.60;99.90;;;;;;4424617;32;20143;-73
2021/03/14 07:08:54;;;;;;;4.57;2.60;;;5.60;99.90;;;;;;4424063;32;20143;-73
2021/03/14 07:11:38;;;;;;;3.97;2.20;;;5.70;99.90;;;;;;4424407;32;20137;-73
2021/03/14 07:14:08;;;;;;;6.07;2.60;;;5.80;99.90;;;;;;4423673;32;20156;-73
2021/03/14 07:16:41;;;;;;;5.17;2.67;;;5.80;99.90;;;;;;4424130;32;20170;-73
2021/03/14 07:19:09;;;;;;;5.17;2.50;;;5.90;99.90;;;;;;4424037;32;20451;-73
2021/03/14 07:21:36;;;;;;;4.13;2.40;;;6.00;99.90;;;;;;4424407;32;20180;-73
2021/03/14 07:24:02;;;;;;;4.90;2.40;;;6.10;99.90;;;;;;4423682;32;20162;-73
2021/03/14 07:26:39;;;;;;;6.03;2.10;;;6.30;99.90;;;;;;4424888;32;20442;-73
2021/03/14 07:29:07;;;;;;;3.07;1.87;;;6.40;99.10;;;;;;4423858;32;20206;-72
2021/03/14 07:31:34;;;;;;;4.70;2.27;;;6.50;98.80;;;;;;4424129;32;20207;-73
2021/03/14 07:34:03;;;;;;;4.43;1.90;;;6.60;97.90;;;;;;4423888;32;20154;-72
2021/03/14 07:36:30;;;;;;;4.43;1.73;;;6.70;97.10;;;;;;4423845;32;20554;-76
2021/03/14 07:39:00;;;;;;;3.03;1.80;;;6.70;95.90;;;;;;4424150;32;20216;-74
2021/03/14 07:41:29;;;;;;;4.00;1.80;;;6.70;95.90;;;;;;4423753;32;20408;-73
2021/03/14 07:43:55;;;;;;;5.80;2.00;;;6.70;96.10;;;;;;4423955;32;20178;-73
2021/03/14 07:46:25;;;;;;;3.90;1.70;;;6.70;96.60;;;;;;4423483;32;20196;-73
2021/03/14 07:48:52;;;;;;;5.43;1.90;;;6.80;95.70;;;;;;4423082;32;20150;-73
2021/03/14 07:51:24;;;;;;;4.77;1.87;;;6.90;95.50;;;;;;4423582;32;20136;-74
2021/03/14 07:53:53;;;;;;;4.63;2.00;;;6.90;94.90;;;;;;4423830;32;20207;-73
2021/03/14 07:56:20;;;;;;;5.43;1.97;;;7.00;94.40;;;;;;4425067;32;20196;-74
2021/03/14 07:58:55;;;;;;;3.87;2.13;;;7.20;93.90;;;;;;4428024;32;20182;-73
2021/03/14 08:01:22;;;;;;;6.67;2.00;;;7.30;93.30;;;;;;4426629;32;20170;-73
2021/03/14 08:03:49;;;;;;;4.43;2.00;;;7.30;93.00;;;;;;4426622;32;20160;-71
2021/03/14 08:06:16;;;;;;;5.00;2.00;;;7.40;92.50;;;;;;4427528;32;20538;-74
2021/03/14 08:08:42;;;;;;;2.57;1.80;;;7.50;92.30;;;;;;4426546;32;20205;-72
2021/03/14 08:11:25;;;;;;;3.30;1.67;;;7.40;92.20;;;;;;4426270;32;20152;-73
2021/03/14 08:13:52;;;;;;;4.80;2.07;;;7.50;91.30;;;;;;4427730;32;20163;-73
2021/03/14 08:16:19;;;;;;;3.73;1.90;;;7.50;91.00;;;;;;4412212;32;20458;-73
2021/03/14 08:18:47;;;;;;;4.50;1.90;;;7.50;91.00;;;;;;4426069;32;20178;-73
2021/03/14 08:21:23;;;;;;;3.93;1.90;;;7.60;90.50;;;;;;4426050;32;20145;-73
2021/03/14 08:24:11;;;;;;;4.33;1.80;;;8.10;88.10;;;;;;4426943;32;20535;-73
2021/03/14 08:26:37;;;;;;;2.87;1.97;;;8.60;85.10;;;;;;4427646;32;20177;-73
2021/03/14 08:29:09;;;;;;;3.93;2.00;;;9.10;81.80;;;;;;4427152;32;20361;-74
2021/03/14 08:31:37;;;;;;;3.63;1.87;;;9.50;79.40;;;;;;4426375;32;20181;-74
2021/03/14 08:34:05;;;;;;;2.37;1.50;;;9.40;77.00;;;;;;4426127;32;20513;-74
2021/03/14 08:36:40;;;;;;;5.03;1.60;;;9.20;77.80;;;;;;4426196;32;20157;-74
2021/03/14 08:39:18;;;;;;;4.27;1.70;;;9.50;77.90;;;;;;4426273;32;20139;-74
2021/03/14 08:41:55;;;;;;;3.83;1.70;;;9.70;75.30;;;;;;4427653;32;20135;-74
2021/03/14 08:44:45;;;;;;;3.87;1.90;;;9.60;75.00;;;;;;4425997;32;20403;-74
2021/03/14 08:47:15;;;;;;;4.07;1.40;;;10.00;74.70;;;;;;4425944;32;20151;-74
2021/03/14 08:49:52;;;;;;;3.93;1.50;;;10.00;72.60;;;;;;4425873;32;20469;-74
2021/03/14 08:52:20;;;;;;;5.07;1.67;;;10.20;72.10;;;;;;4427707;32;20146;-74
2021/03/14 08:54:54;;;;;;;3.70;1.70;;;10.40;70.70;;;;;;4427625;32;20140;-74
2021/03/14 08:57:21;;;;;;;4.23;1.70;;;10.20;70.40;;;;;;4427320;32;20347;-74
2021/03/14 08:59:53;;;;;;;4.23;1.60;;;10.40;70.70;;;;;;4427375;32;20199;-74
2021/03/14 09:02:22;;;;;;;6.17;1.80;;;10.60;71.20;;;;;;4426740;32;20147;-73
2021/03/14 09:04:49;;;;;;;4.17;1.80;;;10.60;68.90;;;;;;4425792;32;20400;-74
2021/03/14 09:07:16;;;;;;;3.07;1.60;;;10.40;68.60;;;;;;4425210;32;20197;-74
2021/03/14 09:09:43;;;;;;;4.30;1.63;;;10.00;70.00;;;;;;4426355;32;20175;-74
2021/03/14 09:12:19;;;;;;;5.60;1.80;;;10.20;70.40;;;;;;4425615;32;20198;-73
2021/03/14 09:14:48;;;;;;;5.47;2.13;;;10.10;70.10;;;;;;4425927;32;20178;-74
2021/03/14 09:17:19;;;;;;;2.73;1.53;;;10.20;70.20;;;;;;4427271;32;20188;-73
2021/03/14 09:19:48;;;;;;;3.57;1.60;;;10.10;69.50;;;;;;4425541;32;20201;-74
2021/03/14 09:22:23;;;;;;;4.43;1.90;;;10.30;69.30;;;;;;4425402;32;20161;-74
2021/03/14 09:24:59;;;;;;;3.70;1.70;;;10.40;68.90;;;;;;4425425;32;20178;-74
2021/03/14 09:27:30;;;;;;;4.60;1.60;;;10.30;68.70;;;;;;4425566;32;20412;-73
2021/03/14 09:29:58;;;;;;;3.97;1.73;;;10.20;68.80;;;;;;4425354;32;20165;-73
2021/03/14 09:32:32;;;;;;;2.23;1.50;;;10.10;68.80;;;;;;4426808;32;20182;-74
2021/03/14 09:35:10;;;;;;;3.63;1.60;;;10.50;68.50;;;;;;4425184;32;20187;-73
2021/03/14 09:37:38;;;;;;;3.27;1.60;;;10.80;66.70;;;;;;4425219;32;20131;-73
2021/03/14 09:40:18;;;;;;;3.87;1.43;;;10.70;66.30;;;;;;4427171;32;20450;-73
2021/03/14 09:42:50;;;;;;;4.80;1.70;;;10.70;66.70;;;;;;4425195;32;20162;-74
2021/03/14 09:45:20;;;;;;;4.57;1.57;;;11.10;65.80;;;;;;4425196;32;20227;-74
2021/03/14 09:48:06;;;;;;;2.67;1.30;;;11.50;64.00;;;;;;4425056;32;20180;-73
2021/03/14 09:50:46;;;;;;;2.80;1.40;;;11.60;60.60;;;;;;4424851;32;20460;-72
2021/03/14 09:53:13;;;;;;;3.70;1.60;;;11.70;59.60;;;;;;4426514;32;20143;-73
2021/03/14 09:55:43;;;;;;;2.33;1.40;;;11.20;60.00;;;;;;4424878;32;20157;-74
2021/03/14 09:58:16;;;;;;;3.10;1.63;;;11.00;60.80;;;;;;4426394;32;20399;-74
2021/03/14 10:00:44;;;;;;;3.60;1.50;;;10.80;61.70;;;;;;4426426;32;20155;-73
2021/03/14 10:03:13;;;;;;;3.20;1.50;;;10.70;62.20;;;;;;4423899;32;20481;-73
2021/03/14 10:05:45;;;;;;;3.57;1.53;;;10.40;62.00;;;;;;4426040;32;20199;-74
2021/03/14 10:08:22;;;;;;;2.50;1.67;;;10.20;62.60;;;;;;4424685;32;20142;-73
2021/03/14 10:10:52;;;;;;;3.80;1.40;;;10.00;63.70;;;;;;4425997;32;20174;-74
2021/03/14 10:13:23;;;;;;;2.80;1.67;;;10.10;64.20;;;;;;4425887;32;20143;-73
2021/03/14 10:15:51;;;;;;;3.67;1.50;;;10.10;64.00;;;;;;4424215;32;20172;-74
2021/03/14 10:18:22;;;;;;;2.63;1.40;;;10.20;63.30;;;;;;4426132;32;20131;-74
2021/03/14 10:20:50;;;;;;;3.40;1.27;;;10.40;62.50;;;;;;4425650;32;20135;-74
2021/03/14 10:23:24;;;;;;;3.40;1.40;;;10.40;62.10;;;;;;4423895;32;20512;-73
2021/03/14 10:25:51;;;;;;;3.10;1.40;;;10.40;62.30;;;;;;4424441;32;20419;-73
2021/03/14 10:28:20;;;;;;;3.27;1.50;;;10.40;63.10;;;;;;4424320;32;20180;-73
2021/03/14 10:30:48;;;;;;;4.50;1.60;;;10.20;62.80;;;;;;4425291;32;20174;-73
2021/03/14 10:33:27;;;;;;;3.20;1.43;;;10.10;63.80;;;;;;4423444;32;20400;-73
2021/03/14 10:36:05;;;;;;;2.87;1.70;;;10.10;64.30;;;;;;4426150;32;20369;-73
2021/03/14 10:38:40;;;;;;;4.67;1.53;;;9.90;64.90;;;;;;4425305;32;20134;-73
2021/03/14 10:41:12;;;;;;;3.43;1.57;;;9.70;65.40;;;;;;4425787;32;20169;-73
2021/03/14 10:43:53;;;;;;;4.33;1.73;;;9.70;65.50;;;;;;4425924;32;20139;-73
2021/03/14 10:46:49;;;;;;;3.07;1.47;;;9.50;66.00;;;;;;4424069;32;20161;-74
2021/03/14 10:49:30;;;;;;;5.07;1.50;;;9.50;66.10;;;;;;4426246;32;20246;-74
2021/03/14 10:51:59;;;;;;;2.73;1.40;;;9.50;66.90;;;;;;4426069;32;20145;-74
2021/03/14 10:54:36;;;;;;;3.10;1.47;;;9.60;67.50;;;;;;4425871;32;20561;-74
2021/03/14 10:57:13;;;;;;;4.60;1.50;;;9.50;67.60;;;;;;4424210;32;20170;-73
2021/03/14 10:59:39;;;;;;;2.53;1.63;;;9.60;67.80;;;;;;4426063;32;20134;-74
2021/03/14 11:02:13;;;;;;;3.47;1.87;;;9.50;68.10;;;;;;4424168;32;20477;-74
2021/03/14 11:04:40;;;;;;;3.73;1.80;;;9.40;68.00;;;;;;4425634;32;20169;-74
2021/03/14 11:07:31;;;;;;;4.53;1.80;;;9.40;68.80;;;;;;4424317;32;20176;-74
2021/03/14 11:10:09;;;;;;;4.03;1.70;;;9.30;68.50;;;;;;4426234;32;20495;-72
2021/03/14 11:12:41;;;;;;;2.87;1.97;;;9.20;69.40;;;;;;4424088;32;20234;-74
2021/03/14 11:15:25;;;;;;;2.60;1.80;;;9.20;69.40;;;;;;4425647;32;20139;-74
2021/03/14 11:17:53;;;;;;;2.53;1.90;;;9.20;69.90;;;;;;4423975;32;20193;-74
2021/03/14 11:20:21;;;;;;;3.83;1.90;;;9.20;70.20;;;;;;4423789;32;20143;-74
2021/03/14 11:22:52;;;;;;;3.10;1.57;;;9.30;69.60;;;;;;4423978;32;20152;-73
2021/03/14 11:25:20;;;;;;;3.30;1.90;;;9.50;69.10;;;;;;4425784;32;20192;-74
2021/03/14 11:27:48;;;;;;;3.03;1.87;;;10.00;67.70;;;;;;4425154;32;20400;-72
2021/03/14 11:30:16;;;;;;;3.40;1.70;;;10.40;66.30;;;;;;4424174;32;20142;-73
2021/03/14 11:32:43;;;;;;;3.83;2.00;;;10.90;63.80;;;;;;4427978;32;20139;-73
2021/03/14 11:35:10;;;;;;;2.80;2.00;;;11.20;62.70;;;;;;4426901;32;20139;-73
2021/03/14 11:37:37;;;;;;;3.53;2.00;;;11.20;61.00;;;;;;4427050;32;20147;-72
2021/03/14 11:40:07;;;;;;;2.30;1.83;;;11.10;60.80;;;;;;4426856;32;20537;-73
2021/03/14 11:42:34;;;;;;;5.43;2.00;;;11.30;62.10;;;;;;4427240;32;20143;-72
2021/03/14 11:45:01;;;;;;;5.07;2.40;;;11.10;64.80;;;;;;4428337;32;20143;-73
2021/03/14 11:47:28;;;;;;;6.07;2.30;;;11.30;66.40;;;;;;4426915;32;20143;-73
2021/03/14 11:49:54;;;;;;;4.97;2.20;;;11.50;65.50;;;;;;4428113;32;20210;-73
2021/03/14 11:52:21;;;;;;;6.57;2.30;;;10.90;66.30;;;;;;4426557;32;20189;-69
2021/03/14 11:54:47;;;;;;;4.13;2.70;;;10.60;67.70;;;;;;4428142;32;20222;-70
2021/03/14 11:57:14;;;;;;;4.27;2.57;;;10.10;67.40;;;;;;4427369;32;20385;-70
2021/03/14 11:59:40;;;;;;;4.33;2.60;;;9.70;69.80;;;;;;4427914;32;20465;-70
2021/03/14 12:02:07;;;;;;;3.77;2.27;;;10.50;69.00;;;;;;4426234;32;20473;-70
2021/03/14 12:04:33;;;;;;;3.53;2.10;;;11.20;64.90;;;;;;4428131;32;20139;-70
2021/03/14 12:07:00;;;;;;;3.80;2.47;;;11.30;63.20;;;;;;4426587;32;20270;-71
2021/03/14 12:09:27;;;;;;;3.53;2.17;;;10.60;65.60;;;;;;4427665;32;20139;-70
2021/03/14 12:11:53;;;;;;;2.53;2.10;;;10.60;66.00;;;;;;4426946;32;20139;-70
2021/03/14 12:14:20;;;;;;;2.93;2.00;;;10.00;66.70;;;;;;4426683;32;20157;-69
2021/03/14 12:16:47;;;;;;;2.93;1.80;;;9.60;68.50;;;;;;4426506;32;20147;-69
2021/03/14 12:19:14;;;;;;;2.20;1.60;;;9.60;67.60;;;;;;4426953;32;20155;-70
2021/03/14 12:21:41;;;;;;;5.50;1.90;;;9.50;68.10;;;;;;4427879;32;20162;-71
2021/03/14 12:24:07;;;;;;;2.73;1.70;;;9.40;68.90;;;;;;4426221;32;20159;-71
2021/03/14 12:26:34;;;;;;;3.80;1.90;;;9.40;69.30;;;;;;4426218;32;20149;-70
2021/03/14 12:29:02;;;;;;;2.73;1.80;;;9.40;69.00;;;;;;4427563;32;20202;-71
2021/03/14 12:31:28;;;;;;;3.37;2.00;;;9.40;69.70;;;;;;4425125;32;20193;-71
2021/03/14 12:33:55;;;;;;;3.80;1.80;;;9.70;69.20;;;;;;4427089;32;20202;-70
2021/03/14 12:36:21;;;;;;;3.50;1.73;;;9.50;68.40;;;;;;4426050;32;20456;-71
2021/03/14 12:38:48;;;;;;;2.73;1.80;;;9.40;68.50;;;;;;4413805;32;20272;-70
2021/03/14 12:41:14;;;;;;;2.60;1.80;;;9.30;68.80;;;;;;4426026;32;20477;-70
2021/03/14 12:43:41;;;;;;;3.10;1.80;;;9.20;69.30;;;;;;4426871;32;20396;-70
2021/03/14 12:46:08;;;;;;;4.03;2.00;;;9.10;70.00;;;;;;4426067;32;20454;-70
2021/03/14 12:48:34;;;;;;;4.00;1.80;;;9.00;70.40;;;;;;4413735;32;20223;-71
2021/03/14 12:51:01;;;;;;;2.60;1.90;;;8.90;71.80;;;;;;4427212;32;20629;-71
2021/03/14 12:53:28;;;;;;;3.60;2.00;;;8.90;72.00;;;;;;4424956;32;20616;-71
2021/03/14 12:55:54;;;;;;;3.67;2.10;;;8.90;72.40;;;;;;4425216;32;20208;-74
2021/03/14 12:58:21;;;;;;;3.50;1.80;;;8.80;73.40;;;;;;4424924;32;20204;-74
2021/03/14 13:00:47;;;;;;;3.33;2.30;;;8.80;74.00;;;;;;4424031;32;20159;-74
2021/03/14 13:03:14;;;;;;;3.77;2.37;;;8.70;75.10;;;;;;4423881;32;20217;-75
2021/03/14 13:05:40;;;;;;;4.50;2.83;;;8.60;77.30;;;;;;4423506;32;20177;-73
2021/03/14 13:08:07;;;;;;;3.47;2.60;;;8.30;79.80;;;;;;4423676;32;20150;-76